createdAt,value
2023-05-31T00:00:12.562Z,18.94
2023-05-31T00:02:38.978Z,18.84
2023-05-31T00:05:05.354Z,18.72
2023-05-31T00:07:34.165Z,18.78
2023-05-31T00:10:00.545Z,18.54
2023-05-31T00:12:26.936Z,18.60
2023-05-31T00:14:53.327Z,18.55
2023-05-31T00:19:48.926Z,18.39
2023-05-31T00:22:15.311Z,18.44
2023-05-31T00:24:41.674Z,18.40
2023-05-31T00:27:08.045Z,18.44
2023-05-31T00:29:34.439Z,18.29
2023-05-31T00:32:01.009Z,18.22
2023-05-31T00:34:27.365Z,18.31
2023-05-31T00:36:53.760Z,18.32
2023-05-31T00:39:20.149Z,18.27
2023-05-31T00:41:46.508Z,18.26
2023-05-31T00:44:12.891Z,18.31
2023-05-31T00:46:39.265Z,18.40
2023-05-31T00:49:05.623Z,18.37
2023-05-31T00:51:31.996Z,18.34
2023-05-31T00:53:58.357Z,18.34
2023-05-31T00:56:24.718Z,18.23
2023-05-31T00:58:51.210Z,18.27
2023-05-31T01:01:17.624Z,18.31
2023-05-31T01:03:44.071Z,18.17
2023-05-31T01:06:10.521Z,18.03
2023-05-31T01:08:36.888Z,18.19
2023-05-31T01:11:03.258Z,18.20
2023-05-31T01:13:29.669Z,18.13
2023-05-31T01:15:56.079Z,17.97
2023-05-31T01:18:22.452Z,18.05
2023-05-31T01:20:48.920Z,17.91
2023-05-31T01:23:15.327Z,17.90
2023-05-31T01:25:41.692Z,17.92
2023-05-31T01:28:08.112Z,17.91
2023-05-31T01:30:34.471Z,18.00
2023-05-31T01:33:00.948Z,17.97
2023-05-31T01:35:27.355Z,18.03
2023-05-31T01:37:53.718Z,18.01
2023-05-31T01:40:20.088Z,18.02
2023-05-31T01:42:46.451Z,17.89
2023-05-31T01:45:12.811Z,17.98
2023-05-31T01:47:39.198Z,17.97
2023-05-31T01:50:05.596Z,18.07
2023-05-31T01:52:31.956Z,18.01
2023-05-31T01:54:58.317Z,17.99
2023-05-31T01:57:24.688Z,17.84
2023-05-31T01:59:51.055Z,17.90
2023-05-31T02:02:17.413Z,18.01
2023-05-31T02:04:43.794Z,17.84
2023-05-31T02:07:10.145Z,17.98
2023-05-31T02:09:36.511Z,17.90
2023-05-31T02:12:02.881Z,18.03
2023-05-31T02:14:29.294Z,17.91
2023-05-31T02:16:55.690Z,17.86
2023-05-31T02:19:22.152Z,17.88
2023-05-31T02:21:48.499Z,17.81
2023-05-31T02:24:14.855Z,17.85
2023-05-31T02:26:41.255Z,17.85
2023-05-31T02:29:07.630Z,17.86
2023-05-31T02:31:34.030Z,17.75
2023-05-31T02:34:00.541Z,17.75
2023-05-31T02:36:26.899Z,17.71
2023-05-31T02:38:53.263Z,17.65
2023-05-31T02:41:19.665Z,17.70
2023-05-31T02:43:46.018Z,17.58
2023-05-31T02:46:12.439Z,17.49
2023-05-31T02:48:38.888Z,17.49
2023-05-31T02:51:05.237Z,17.50
2023-05-31T02:53:31.595Z,17.45
2023-05-31T02:55:57.966Z,17.42
2023-05-31T02:58:24.408Z,17.24
2023-05-31T03:00:50.860Z,17.48
2023-05-31T03:03:17.341Z,17.43
2023-05-31T03:05:43.824Z,17.31
2023-05-31T03:08:10.267Z,17.29
2023-05-31T03:10:36.721Z,17.33
2023-05-31T03:13:03.179Z,17.21
2023-05-31T03:15:29.632Z,17.24
2023-05-31T03:17:56.182Z,17.37
2023-05-31T03:20:22.669Z,17.39
2023-05-31T03:22:49.107Z,17.26
2023-05-31T03:25:15.597Z,17.19
2023-05-31T03:27:42.157Z,17.20
2023-05-31T03:30:08.587Z,17.11
2023-05-31T03:32:36.234Z,17.18
2023-05-31T03:35:04.137Z,17.34
2023-05-31T03:37:30.575Z,17.30
2023-05-31T03:39:57.041Z,17.21
2023-05-31T03:42:23.486Z,17.34
2023-05-31T03:44:49.945Z,17.56
2023-05-31T03:47:16.402Z,17.56
2023-05-31T03:49:42.854Z,17.56
2023-05-31T03:52:09.282Z,17.69
2023-05-31T03:54:35.734Z,17.68
2023-05-31T03:57:02.171Z,17.48
2023-05-31T03:59:28.640Z,17.25
2023-05-31T04:01:55.104Z,17.42
2023-05-31T04:04:21.740Z,17.44
2023-05-31T04:06:48.272Z,17.35
2023-05-31T04:09:14.739Z,17.37
2023-05-31T04:11:41.168Z,17.26
2023-05-31T04:14:07.610Z,17.37
2023-05-31T04:16:34.224Z,17.05
2023-05-31T04:19:00.761Z,17.30
2023-05-31T04:21:27.161Z,17.04
2023-05-31T04:23:53.783Z,17.22
2023-05-31T04:26:20.197Z,17.27
2023-05-31T04:28:46.766Z,17.53
2023-05-31T04:31:13.236Z,17.78
2023-05-31T04:33:39.702Z,17.78
2023-05-31T04:36:06.088Z,17.97
2023-05-31T04:38:32.474Z,17.71
2023-05-31T04:40:59.220Z,17.68
2023-05-31T04:43:25.694Z,17.60
2023-05-31T04:45:52.134Z,17.69
2023-05-31T04:48:21.031Z,17.78
2023-05-31T04:50:47.426Z,17.90
2023-05-31T04:53:13.819Z,17.87
2023-05-31T04:55:40.184Z,18.05
2023-05-31T04:58:06.566Z,18.04
2023-05-31T05:00:32.940Z,18.16
2023-05-31T05:02:59.324Z,18.15
2023-05-31T05:05:25.855Z,18.22
2023-05-31T05:07:52.233Z,18.22
2023-05-31T05:10:18.600Z,18.31
2023-05-31T05:12:44.962Z,18.30
2023-05-31T05:15:11.364Z,18.30
2023-05-31T05:17:37.779Z,18.30
2023-05-31T05:20:04.181Z,18.34
2023-05-31T05:22:30.560Z,18.39
2023-05-31T05:24:56.929Z,18.32
2023-05-31T05:27:23.554Z,18.42
2023-05-31T05:29:50.242Z,18.41
2023-05-31T05:32:16.610Z,18.71
2023-05-31T05:34:42.962Z,18.67
2023-05-31T05:37:09.416Z,18.64
2023-05-31T05:39:35.790Z,18.84
2023-05-31T05:42:02.161Z,18.83
2023-05-31T05:44:28.564Z,18.56
2023-05-31T05:46:54.961Z,18.62
2023-05-31T05:49:21.330Z,18.65
2023-05-31T05:51:47.765Z,18.62
2023-05-31T05:54:14.333Z,18.40
2023-05-31T05:56:40.672Z,18.46
2023-05-31T05:59:07.043Z,18.65
2023-05-31T06:01:36.182Z,18.71
2023-05-31T06:04:02.841Z,18.68
2023-05-31T06:06:29.233Z,18.53
2023-05-31T06:08:55.598Z,18.74
2023-05-31T06:11:21.953Z,18.74
2023-05-31T06:13:48.348Z,18.70
2023-05-31T06:16:14.767Z,18.92
2023-05-31T06:18:41.236Z,18.85
2023-05-31T06:21:07.667Z,18.71
2023-05-31T06:23:34.116Z,18.49
2023-05-31T06:26:00.474Z,18.91
2023-05-31T06:28:26.863Z,18.84
2023-05-31T06:30:53.237Z,18.61
2023-05-31T06:33:19.587Z,18.74
2023-05-31T06:35:46.058Z,18.58
2023-05-31T06:38:12.448Z,18.85
2023-05-31T06:40:38.814Z,18.80
2023-05-31T06:43:05.235Z,18.66
2023-05-31T06:45:31.612Z,18.75
2023-05-31T06:48:00.167Z,18.92
2023-05-31T06:50:27.354Z,18.66
2023-05-31T06:52:53.737Z,18.78
2023-05-31T06:55:20.107Z,18.70
2023-05-31T06:57:46.514Z,18.84
2023-05-31T07:00:12.870Z,18.51
2023-05-31T07:02:39.261Z,18.91
2023-05-31T07:05:05.668Z,18.83
2023-05-31T07:07:32.044Z,18.69
2023-05-31T07:09:58.405Z,18.66
2023-05-31T07:12:24.783Z,18.38
2023-05-31T07:14:51.158Z,18.52
2023-05-31T07:17:17.534Z,18.59
2023-05-31T07:19:43.942Z,18.62
2023-05-31T07:22:10.311Z,18.53
2023-05-31T07:24:36.678Z,18.36
2023-05-31T07:27:03.050Z,18.39
2023-05-31T07:29:29.554Z,18.55
2023-05-31T07:31:55.918Z,18.76
2023-05-31T07:34:22.285Z,18.91
2023-05-31T07:36:48.687Z,18.79
2023-05-31T07:39:15.038Z,18.81
2023-05-31T07:41:41.418Z,19.02
2023-05-31T07:44:07.774Z,19.32
2023-05-31T07:46:34.137Z,19.00
2023-05-31T07:49:00.578Z,18.91
2023-05-31T07:51:26.978Z,18.80
2023-05-31T07:53:53.339Z,18.83
2023-05-31T07:56:19.760Z,19.08
2023-05-31T07:58:46.132Z,19.04
2023-05-31T08:01:12.485Z,19.13
2023-05-31T08:03:39.010Z,18.94
2023-05-31T08:06:05.427Z,19.05
2023-05-31T08:08:31.819Z,18.81
2023-05-31T08:10:58.213Z,18.86
2023-05-31T08:13:24.853Z,18.93
2023-05-31T08:15:51.197Z,19.11
2023-05-31T08:18:17.664Z,18.94
2023-05-31T08:20:44.093Z,19.45
2023-05-31T08:23:10.483Z,19.36
2023-05-31T08:25:36.856Z,19.03
2023-05-31T08:28:03.217Z,19.17
2023-05-31T08:30:29.564Z,19.05
2023-05-31T08:32:55.995Z,19.14
2023-05-31T08:35:22.381Z,18.89
2023-05-31T08:37:48.932Z,19.21
2023-05-31T08:40:16.581Z,19.28
2023-05-31T08:42:42.944Z,19.44
2023-05-31T08:45:09.300Z,19.51
2023-05-31T08:47:35.689Z,19.59
2023-05-31T08:50:02.061Z,19.75
2023-05-31T08:52:28.415Z,19.56
2023-05-31T08:54:54.806Z,19.51
2023-05-31T08:57:21.173Z,19.68
2023-05-31T08:59:47.505Z,19.70
2023-05-31T09:02:13.912Z,20.04
2023-05-31T09:04:40.288Z,20.21
2023-05-31T09:07:06.695Z,20.20
2023-05-31T09:09:33.073Z,20.43
2023-05-31T09:11:59.417Z,20.55
2023-05-31T09:14:25.792Z,20.39
2023-05-31T09:19:18.477Z,20.66
2023-05-31T09:21:44.810Z,21.10
2023-05-31T09:24:11.166Z,20.96
2023-05-31T09:26:37.514Z,21.13
2023-05-31T09:29:03.876Z,21.10
2023-05-31T09:31:30.261Z,21.16
2023-05-31T09:33:56.608Z,21.49
2023-05-31T09:36:22.945Z,21.28
2023-05-31T09:38:49.310Z,21.40
2023-05-31T09:41:15.727Z,21.41
2023-05-31T09:43:42.079Z,21.84
2023-05-31T09:46:08.463Z,21.86
2023-05-31T09:48:34.844Z,22.16
2023-05-31T09:51:01.382Z,21.81
2023-05-31T09:53:27.807Z,22.07
2023-05-31T09:55:54.213Z,22.06
2023-05-31T09:58:20.569Z,22.51
2023-05-31T10:00:47.002Z,22.09
2023-05-31T10:03:13.440Z,22.03
2023-05-31T10:05:40.085Z,22.39
2023-05-31T10:08:06.507Z,22.49
2023-05-31T10:10:32.865Z,22.81
2023-05-31T10:13:00.650Z,22.54
2023-05-31T10:15:28.817Z,22.62
2023-05-31T10:17:55.197Z,22.47
2023-05-31T10:20:21.740Z,22.39
2023-05-31T10:22:48.144Z,22.29
2023-05-31T10:25:14.544Z,22.25
2023-05-31T10:27:40.901Z,22.50
2023-05-31T10:30:07.279Z,22.18
2023-05-31T10:32:33.680Z,22.56
2023-05-31T10:35:00.071Z,22.64
2023-05-31T10:37:26.464Z,22.56
2023-05-31T10:39:52.805Z,22.48
2023-05-31T10:42:19.159Z,21.95
2023-05-31T10:44:45.532Z,22.27
2023-05-31T10:47:12.014Z,22.47
2023-05-31T10:49:38.399Z,22.57
2023-05-31T10:52:04.761Z,22.67
2023-05-31T10:54:31.104Z,22.78
2023-05-31T10:56:57.452Z,22.95
2023-05-31T10:59:25.775Z,23.83
2023-05-31T11:01:52.191Z,23.84
2023-05-31T11:04:18.601Z,23.51
2023-05-31T11:06:45.062Z,23.25
2023-05-31T11:09:11.438Z,23.09
2023-05-31T11:11:37.827Z,23.09
2023-05-31T11:14:04.196Z,23.33
2023-05-31T11:16:30.591Z,23.26
2023-05-31T11:18:56.958Z,23.33
2023-05-31T11:21:23.329Z,23.31
2023-05-31T11:23:49.762Z,23.75
2023-05-31T11:26:16.114Z,23.55
2023-05-31T11:28:42.585Z,23.54
2023-05-31T11:31:08.935Z,23.39
2023-05-31T11:33:37.744Z,23.34
2023-05-31T11:36:08.155Z,23.14
2023-05-31T11:38:34.504Z,23.12
2023-05-31T11:41:00.999Z,23.35
2023-05-31T11:43:27.430Z,24.44
2023-05-31T11:45:53.774Z,23.51
2023-05-31T11:48:20.138Z,23.57
2023-05-31T11:50:46.494Z,23.71
2023-05-31T11:53:12.836Z,24.00
2023-05-31T11:55:39.179Z,23.85
2023-05-31T11:58:05.544Z,24.29
2023-05-31T12:00:31.866Z,24.15
2023-05-31T12:02:58.306Z,24.41
2023-05-31T12:05:24.752Z,24.17
2023-05-31T12:07:51.084Z,23.75
2023-05-31T12:10:17.412Z,23.51
2023-05-31T12:12:43.812Z,23.54
2023-05-31T12:15:10.162Z,23.52
2023-05-31T12:17:36.529Z,23.54
2023-05-31T12:20:02.924Z,24.02
2023-05-31T12:22:29.283Z,24.16
2023-05-31T12:24:55.617Z,24.02
2023-05-31T12:27:26.947Z,24.00
2023-05-31T12:30:03.588Z,23.50
2023-05-31T12:32:30.072Z,23.44
2023-05-31T12:34:56.471Z,23.34
2023-05-31T12:37:22.906Z,23.74
2023-05-31T12:39:49.277Z,23.55
2023-05-31T12:42:15.618Z,23.61
2023-05-31T12:44:41.960Z,23.85
2023-05-31T12:47:08.322Z,24.05
2023-05-31T12:49:34.681Z,24.36
2023-05-31T12:52:01.021Z,24.03
2023-05-31T12:54:27.414Z,23.81
2023-05-31T12:56:53.762Z,23.74
2023-05-31T12:59:20.102Z,23.67
2023-05-31T13:01:46.528Z,23.98
2023-05-31T13:04:12.924Z,23.74
2023-05-31T13:06:39.271Z,23.90
2023-05-31T13:09:05.653Z,23.94
2023-05-31T13:11:32.021Z,24.01
